Time;durP1;ratioP1;P1;durP2;ratioP2;P2;SDS_P1;SDS_P2;PMS_P1;PMS_P2;Temp;Humidity;BMP_temperature;BMP_pressure;BME280_temperature;BME280_humidity;BME280_pressure;Samples;Min_cycle;Max_cycle;Signal;HPM_P1;HPM_P2
2023/09/16 00:00:06;;;;;;;4.28;3.45;;;12.40;99.90;;;;;;5154935;27;20054;-79
2023/09/16 00:02:32;;;;;;;6.18;4.40;;;12.40;99.90;;;;;;5154799;27;20395;-79
2023/09/16 00:04:58;;;;;;;7.25;5.32;;;12.50;99.90;;;;;;5154995;27;20043;-79
2023/09/16 00:07:23;;;;;;;12.07;6.80;;;12.60;99.90;;;;;;5154983;27;20046;-79
2023/09/16 00:09:50;;;;;;;7.82;6.63;;;12.70;99.90;;;;;;5136417;27;20046;-79
2023/09/16 00:12:15;;;;;;;6.10;4.75;;;12.80;99.90;;;;;;5119434;27;20078;-79
2023/09/16 00:14:41;;;;;;;5.93;4.57;;;12.80;99.90;;;;;;5154041;27;20053;-79
2023/09/16 00:17:09;;;;;;;6.35;4.70;;;12.80;99.90;;;;;;5155073;27;20053;-79
2023/09/16 00:19:34;;;;;;;6.05;4.40;;;12.80;99.90;;;;;;5135394;27;20054;-80
2023/09/16 00:22:00;;;;;;;7.07;5.15;;;12.80;99.90;;;;;;5154324;27;20061;-79
2023/09/16 00:24:26;;;;;;;8.30;6.35;;;12.80;99.90;;;;;;5153862;27;20053;-79
2023/09/16 00:26:52;;;;;;;8.45;5.60;;;12.80;99.90;;;;;;5141195;27;20047;-78
2023/09/16 00:29:18;;;;;;;8.40;6.30;;;12.90;99.90;;;;;;5133458;28;20051;-79
2023/09/16 00:31:43;;;;;;;7.63;6.00;;;12.90;99.90;;;;;;5133626;28;20383;-79
2023/09/16 00:34:09;;;;;;;7.03;6.32;;;12.90;99.90;;;;;;5133565;28;20043;-79
2023/09/16 00:36:35;;;;;;;7.30;5.28;;;12.90;99.90;;;;;;5133350;28;20052;-79
2023/09/16 00:39:00;;;;;;;7.88;6.20;;;12.90;99.90;;;;;;5132746;27;20491;-80
2023/09/16 00:41:26;;;;;;;7.32;5.72;;;12.80;99.90;;;;;;5133102;28;20054;-79
2023/09/16 00:43:52;;;;;;;6.65;5.93;;;12.80;99.90;;;;;;5133284;28;20140;-79
2023/09/16 00:46:17;;;;;;;5.95;4.85;;;12.80;99.90;;;;;;5114800;28;20043;-79
2023/09/16 00:48:45;;;;;;;4.82;3.25;;;12.80;99.90;;;;;;5115099;28;20035;-79
2023/09/16 00:51:13;;;;;;;3.20;2.88;;;12.80;99.90;;;;;;5133123;28;20093;-79
2023/09/16 00:53:41;;;;;;;3.42;2.55;;;12.70;99.90;;;;;;5133245;28;20043;-79
2023/09/16 00:56:07;;;;;;;2.60;2.20;;;12.70;99.90;;;;;;5114551;28;20059;-79
2023/09/16 00:58:34;;;;;;;2.67;2.25;;;12.60;99.90;;;;;;5133748;28;20051;-79
2023/09/16 01:01:01;;;;;;;2.83;2.38;;;12.50;99.90;;;;;;5133027;28;20054;-80
2023/09/16 01:03:27;;;;;;;2.22;1.85;;;12.50;99.90;;;;;;5133462;28;20114;-79
2023/09/16 01:05:54;;;;;;;2.42;2.10;;;12.50;99.90;;;;;;5133062;28;20422;-79
2023/09/16 01:08:22;;;;;;;3.05;2.53;;;12.40;99.90;;;;;;5132573;28;20484;-80
2023/09/16 01:10:48;;;;;;;3.33;2.90;;;12.40;99.90;;;;;;5132798;28;20055;-79
2023/09/16 01:13:14;;;;;;;4.50;3.70;;;12.40;99.90;;;;;;5132949;28;20091;-79
2023/09/16 01:16:03;;;;;;;5.10;4.00;;;12.50;99.90;;;;;;5132408;28;20046;-79
2023/09/16 01:18:35;;;;;;;5.93;4.55;;;12.40;99.90;;;;;;5092539;28;1120199;-79
2023/09/16 01:21:06;;;;;;;5.57;4.35;;;12.40;99.90;;;;;;5115387;28;20047;-78
2023/09/16 01:23:32;;;;;;;4.90;4.28;;;12.40;99.90;;;;;;5115519;28;20471;-79
2023/09/16 01:25:58;;;;;;;5.63;4.72;;;12.40;99.90;;;;;;5134124;27;20531;-79
2023/09/16 01:28:25;;;;;;;5.18;3.97;;;12.40;99.90;;;;;;5119507;27;20176;-79
2023/09/16 01:30:53;;;;;;;6.50;5.22;;;12.40;99.90;;;;;;5114945;27;20119;-79
2023/09/16 01:33:29;;;;;;;6.93;5.18;;;12.50;99.90;;;;;;5157662;27;20042;-79
2023/09/16 01:36:07;;;;;;;6.10;5.07;;;12.50;99.90;;;;;;5139656;27;20043;-79
2023/09/16 01:38:37;;;;;;;5.35;4.40;;;12.50;99.90;;;;;;5139797;27;20429;-78
2023/09/16 01:41:04;;;;;;;5.50;4.50;;;12.50;99.90;;;;;;5157820;27;20506;-79
2023/09/16 01:43:31;;;;;;;7.90;6.82;;;12.50;99.90;;;;;;5139690;27;20482;-78
2023/09/16 01:45:57;;;;;;;8.13;6.50;;;12.60;99.90;;;;;;5157845;27;20057;-78
2023/09/16 01:48:23;;;;;;;7.28;6.30;;;12.60;99.90;;;;;;5157803;27;20487;-79
2023/09/16 01:50:49;;;;;;;6.85;5.38;;;12.70;99.90;;;;;;5157627;27;20042;-79
2023/09/16 01:53:16;;;;;;;6.72;5.03;;;12.70;99.90;;;;;;5139092;27;20042;-77
2023/09/16 01:55:41;;;;;;;6.78;5.35;;;12.60;99.90;;;;;;5156751;27;20051;-79
2023/09/16 01:58:08;;;;;;;8.02;6.18;;;12.50;99.90;;;;;;5157809;27;20471;-79
2023/09/16 02:00:35;;;;;;;8.65;6.68;;;12.50;99.90;;;;;;5157374;27;20046;-78
2023/09/16 02:03:00;;;;;;;8.93;7.07;;;12.60;99.90;;;;;;5157295;27;20380;-80
2023/09/16 02:05:26;;;;;;;8.95;7.50;;;12.70;99.90;;;;;;5157529;27;20045;-79
2023/09/16 02:07:52;;;;;;;9.55;7.68;;;12.80;99.90;;;;;;5139122;27;20050;-79
2023/09/16 02:10:18;;;;;;;8.98;7.45;;;12.90;99.90;;;;;;5157458;27;20054;-79
2023/09/16 02:12:43;;;;;;;10.13;7.85;;;13.00;99.90;;;;;;5157171;27;20061;-80
2023/09/16 02:15:09;;;;;;;10.45;8.05;;;13.00;99.90;;;;;;5157302;27;20394;-79
2023/09/16 02:17:41;;;;;;;9.35;7.35;;;13.10;99.90;;;;;;5138885;27;20497;-79
2023/09/16 02:20:11;;;;;;;10.15;7.05;;;13.20;99.90;;;;;;5159647;27;20107;-79
2023/09/16 02:22:37;;;;;;;9.05;7.32;;;13.20;99.90;;;;;;5141719;27;20095;-78
2023/09/16 02:25:04;;;;;;;9.88;7.40;;;13.30;99.90;;;;;;5158436;27;20073;-78
2023/09/16 02:27:29;;;;;;;11.02;7.30;;;13.30;99.90;;;;;;5156688;27;20046;-80
2023/09/16 02:29:55;;;;;;;7.88;5.88;;;13.30;99.90;;;;;;5151740;27;20062;-78
2023/09/16 02:32:21;;;;;;;8.30;6.07;;;13.30;99.90;;;;;;5135446;27;20051;-78
2023/09/16 02:34:46;;;;;;;7.22;5.70;;;13.20;99.90;;;;;;5135862;27;20476;-79
2023/09/16 02:37:12;;;;;;;7.68;5.85;;;13.20;99.90;;;;;;5117253;28;20093;-79
2023/09/16 02:39:38;;;;;;;8.70;6.60;;;13.20;99.90;;;;;;5156398;27;20402;-78
2023/09/16 02:42:04;;;;;;;7.22;5.78;;;13.10;99.90;;;;;;5138488;27;20038;-79
2023/09/16 02:44:30;;;;;;;6.47;5.38;;;13.10;99.90;;;;;;5138262;27;20049;-79
2023/09/16 02:46:56;;;;;;;7.90;5.90;;;13.00;99.90;;;;;;5156015;27;20038;-78
2023/09/16 02:49:21;;;;;;;7.70;6.25;;;13.00;99.90;;;;;;5121164;27;20058;-79
2023/09/16 02:51:48;;;;;;;6.45;5.43;;;13.00;99.90;;;;;;5156652;27;20047;-79
2023/09/16 02:54:14;;;;;;;5.05;4.10;;;12.90;99.90;;;;;;5156325;27;20042;-79
2023/09/16 02:56:40;;;;;;;4.95;4.35;;;12.80;99.90;;;;;;5155780;27;20038;-78
2023/09/16 02:59:06;;;;;;;5.95;4.40;;;12.70;99.90;;;;;;5156147;27;20135;-79
2023/09/16 03:01:31;;;;;;;6.25;4.80;;;12.50;99.90;;;;;;5137982;27;20049;-79
2023/09/16 03:03:57;;;;;;;4.18;3.75;;;12.50;99.90;;;;;;5156109;27;20042;-79
2023/09/16 03:06:25;;;;;;;5.47;4.50;;;12.40;99.90;;;;;;5156332;27;20030;-80
2023/09/16 03:08:50;;;;;;;7.13;5.53;;;12.40;99.90;;;;;;5155891;27;20094;-78
2023/09/16 03:11:16;;;;;;;9.23;6.00;;;12.40;99.90;;;;;;5155036;27;20066;-78
2023/09/16 03:13:42;;;;;;;7.63;5.93;;;12.40;99.90;;;;;;5156185;27;20042;-79
2023/09/16 03:16:21;;;;;;;6.20;5.00;;;12.40;99.90;;;;;;5156128;27;20041;-79
2023/09/16 03:18:52;;;;;;;7.05;5.70;;;12.40;99.90;;;;;;5155598;27;20084;-78
2023/09/16 03:21:19;;;;;;;7.18;6.00;;;12.40;99.90;;;;;;5155901;27;20057;-78
2023/09/16 03:23:45;;;;;;;6.30;5.63;;;12.40;99.90;;;;;;5137376;27;20038;-78
2023/09/16 03:26:12;;;;;;;6.97;5.60;;;12.40;99.90;;;;;;5155592;27;20031;-78
2023/09/16 03:28:43;;;;;;;6.32;5.60;;;12.50;99.90;;;;;;5137157;27;20047;-79
2023/09/16 03:31:09;;;;;;;8.80;7.18;;;12.40;99.90;;;;;;5140422;27;20089;-77
2023/09/16 03:33:36;;;;;;;6.90;6.20;;;12.50;99.90;;;;;;5134689;27;20089;-78
2023/09/16 03:36:02;;;;;;;7.30;6.50;;;12.50;99.90;;;;;;5134752;27;20125;-79
2023/09/16 03:38:30;;;;;;;7.40;6.68;;;12.50;99.90;;;;;;5145530;27;20139;-78
2023/09/16 03:40:59;;;;;;;9.23;6.43;;;12.50;99.90;;;;;;5155640;27;20440;-79
2023/09/16 03:43:26;;;;;;;6.32;5.18;;;12.50;99.90;;;;;;5155160;27;20555;-79
2023/09/16 03:45:52;;;;;;;5.57;4.82;;;12.50;99.90;;;;;;5136739;27;20078;-79
2023/09/16 03:48:17;;;;;;;5.22;4.63;;;12.50;99.90;;;;;;5154787;27;20093;-78
2023/09/16 03:50:43;;;;;;;6.57;5.88;;;12.50;99.90;;;;;;5155059;27;20046;-78
2023/09/16 03:53:09;;;;;;;6.57;5.90;;;12.50;99.90;;;;;;5155102;27;20054;-78
2023/09/16 03:55:35;;;;;;;6.97;6.03;;;12.50;99.90;;;;;;5154830;27;20038;-78
2023/09/16 03:58:01;;;;;;;7.57;6.28;;;12.40;99.90;;;;;;5136924;27;20042;-79
2023/09/16 04:00:27;;;;;;;7.78;6.63;;;12.40;99.90;;;;;;5155305;27;20047;-79
2023/09/16 04:02:53;;;;;;;8.00;6.60;;;12.40;99.90;;;;;;5154992;27;20047;-78
2023/09/16 04:05:19;;;;;;;8.27;6.85;;;12.40;99.90;;;;;;5154894;27;20043;-78
2023/09/16 04:07:46;;;;;;;7.65;6.32;;;12.40;99.90;;;;;;5154959;27;20074;-78
2023/09/16 04:10:11;;;;;;;7.82;6.80;;;12.40;99.90;;;;;;5136322;27;20564;-79
2023/09/16 04:12:37;;;;;;;6.75;6.05;;;12.40;99.90;;;;;;5136930;27;20047;-79
2023/09/16 04:15:03;;;;;;;6.45;5.85;;;12.40;99.90;;;;;;5155147;27;20168;-77
2023/09/16 04:17:29;;;;;;;7.13;6.22;;;12.40;99.90;;;;;;5154865;27;20050;-77
2023/09/16 04:19:55;;;;;;;9.60;5.43;;;12.40;99.90;;;;;;5154623;27;20055;-79
2023/09/16 04:22:20;;;;;;;6.53;5.32;;;12.30;99.90;;;;;;5136524;27;20073;-78
2023/09/16 04:24:46;;;;;;;6.50;5.90;;;12.30;99.90;;;;;;5154128;27;20047;-78
2023/09/16 04:27:12;;;;;;;7.28;5.18;;;12.30;99.90;;;;;;5154066;27;20046;-78
2023/09/16 04:29:38;;;;;;;5.57;4.72;;;12.30;99.90;;;;;;5152314;27;20050;-78
2023/09/16 04:32:04;;;;;;;6.22;5.10;;;12.30;99.90;;;;;;5134054;28;20093;-78
2023/09/16 04:34:32;;;;;;;5.68;4.80;;;12.20;99.90;;;;;;5134291;28;20042;-77
2023/09/16 04:36:59;;;;;;;5.78;5.28;;;12.20;99.90;;;;;;5134035;28;20057;-79
2023/09/16 04:39:27;;;;;;;5.03;4.63;;;12.20;99.90;;;;;;5152615;27;20051;-78
2023/09/16 04:41:53;;;;;;;6.15;4.90;;;12.20;99.90;;;;;;5154976;27;20046;-78
2023/09/16 04:44:20;;;;;;;5.80;5.10;;;12.20;99.90;;;;;;5155123;27;20092;-77
2023/09/16 04:46:46;;;;;;;5.35;4.85;;;12.20;99.90;;;;;;5154690;27;20099;-78
2023/09/16 04:49:12;;;;;;;5.05;4.55;;;12.20;99.90;;;;;;5154492;27;20547;-79
2023/09/16 04:51:41;;;;;;;5.60;5.07;;;12.10;99.90;;;;;;5154703;27;20127;-78
2023/09/16 04:54:07;;;;;;;6.07;5.35;;;12.10;99.90;;;;;;5136302;27;20043;-78
2023/09/16 04:56:35;;;;;;;5.75;5.20;;;12.20;99.90;;;;;;5136225;27;20072;-77
2023/09/16 04:59:00;;;;;;;6.38;5.68;;;12.20;99.90;;;;;;5155036;27;20042;-77
2023/09/16 05:01:29;;;;;;;6.72;6.03;;;12.10;99.90;;;;;;5155987;27;20483;-77
2023/09/16 05:03:55;;;;;;;6.72;5.88;;;12.20;99.90;;;;;;5157513;27;20042;-78
2023/09/16 05:06:21;;;;;;;6.85;6.25;;;12.20;99.90;;;;;;5157650;27;20126;-78
2023/09/16 05:08:47;;;;;;;6.22;5.63;;;12.20;99.90;;;;;;5158331;27;20507;-78
2023/09/16 05:11:13;;;;;;;5.85;4.80;;;12.20;99.90;;;;;;5139998;27;20456;-78
2023/09/16 05:13:40;;;;;;;5.28;4.78;;;12.20;99.90;;;;;;5140180;27;20371;-78
2023/09/16 05:16:05;;;;;;;4.65;4.25;;;12.10;99.90;;;;;;5158218;27;20099;-79
2023/09/16 05:18:31;;;;;;;4.93;4.43;;;12.00;99.90;;;;;;5158134;27;20476;-79
2023/09/16 05:20:57;;;;;;;4.88;4.40;;;12.00;99.90;;;;;;5158214;27;20085;-78
2023/09/16 05:23:23;;;;;;;5.18;4.68;;;12.00;99.90;;;;;;5158331;27;20398;-79
2023/09/16 05:25:49;;;;;;;5.75;5.15;;;11.90;99.90;;;;;;5157727;27;20045;-78
2023/09/16 05:28:16;;;;;;;5.53;4.93;;;11.90;99.90;;;;;;5158092;27;20125;-79
2023/09/16 05:30:42;;;;;;;5.97;5.10;;;11.90;99.90;;;;;;5128157;27;20050;-79
2023/09/16 05:33:10;;;;;;;5.50;4.93;;;11.90;99.90;;;;;;5119027;27;20129;-78
2023/09/16 05:35:39;;;;;;;5.82;5.22;;;11.90;99.90;;;;;;5137152;27;20039;-78
2023/09/16 05:38:05;;;;;;;5.32;4.82;;;11.90;99.90;;;;;;5109355;27;20466;-79
2023/09/16 05:40:31;;;;;;;5.60;4.97;;;11.90;99.90;;;;;;5139507;27;20078;-76
2023/09/16 05:42:57;;;;;;;5.50;4.60;;;11.90;99.90;;;;;;5156866;27;20130;-76
2023/09/16 05:45:22;;;;;;;4.72;4.18;;;11.90;99.90;;;;;;5157962;27;20126;-77
2023/09/16 05:47:49;;;;;;;6.32;5.30;;;11.90;99.90;;;;;;5157475;27;20570;-77
2023/09/16 05:50:16;;;;;;;8.55;5.13;;;11.80;99.90;;;;;;5157750;27;20050;-77
2023/09/16 05:52:42;;;;;;;5.80;4.90;;;11.70;99.90;;;;;;5157736;27;20038;-77
2023/09/16 05:55:08;;;;;;;6.57;4.68;;;11.60;99.90;;;;;;5157521;27;20046;-77
2023/09/16 05:57:34;;;;;;;4.93;4.40;;;11.60;99.90;;;;;;5157397;27;20122;-78
2023/09/16 06:00:00;;;;;;;5.13;4.60;;;11.50;99.90;;;;;;5157642;27;20203;-78
2023/09/16 06:02:25;;;;;;;4.95;4.43;;;11.50;99.90;;;;;;5157449;27;20121;-78
2023/09/16 06:04:51;;;;;;;5.10;4.60;;;11.50;99.90;;;;;;5121927;27;20391;-77
2023/09/16 06:07:17;;;;;;;5.40;4.90;;;11.40;99.90;;;;;;5157506;27;20184;-76
2023/09/16 06:09:43;;;;;;;6.30;4.93;;;11.50;99.90;;;;;;5157417;27;20179;-77
2023/09/16 06:12:09;;;;;;;7.55;5.15;;;11.60;99.90;;;;;;5156621;27;20114;-78
2023/09/16 06:14:34;;;;;;;5.97;4.93;;;11.60;99.90;;;;;;5157044;27;20050;-77
2023/09/16 06:17:00;;;;;;;5.60;5.00;;;11.70;99.90;;;;;;5156939;27;20121;-76
2023/09/16 06:19:28;;;;;;;5.50;5.00;;;11.80;99.90;;;;;;5156533;27;20054;-77
2023/09/16 06:21:54;;;;;;;5.53;5.00;;;11.90;99.90;;;;;;5156747;27;20039;-78
2023/09/16 06:24:21;;;;;;;5.78;5.25;;;12.00;99.90;;;;;;5157037;27;20047;-79
2023/09/16 06:26:46;;;;;;;6.20;5.60;;;12.10;99.90;;;;;;5138697;27;20054;-78
2023/09/16 06:29:12;;;;;;;6.13;5.53;;;12.20;99.90;;;;;;5157471;27;20467;-76
2023/09/16 06:31:38;;;;;;;7.10;6.30;;;12.30;99.90;;;;;;5137253;27;20039;-76
2023/09/16 06:34:05;;;;;;;7.93;6.20;;;12.40;99.90;;;;;;5136075;27;20099;-76
2023/09/16 06:36:31;;;;;;;6.82;5.82;;;12.50;99.90;;;;;;5136081;27;20099;-68
2023/09/16 06:38:57;;;;;;;9.10;7.13;;;12.60;99.90;;;;;;5132239;27;20053;-65
2023/09/16 06:41:23;;;;;;;7.22;6.53;;;12.70;99.90;;;;;;5156937;27;20387;-66
2023/09/16 06:43:48;;;;;;;10.02;7.38;;;12.80;99.90;;;;;;5156481;27;20118;-66
2023/09/16 06:46:14;;;;;;;9.43;7.85;;;12.90;99.90;;;;;;5156554;27;20038;-65
2023/09/16 06:48:40;;;;;;;9.20;7.78;;;13.00;99.90;;;;;;5156169;27;20058;-65
2023/09/16 06:51:05;;;;;;;9.60;8.15;;;13.10;99.90;;;;;;5138383;27;20046;-65
2023/09/16 06:53:32;;;;;;;10.88;9.18;;;13.30;99.90;;;;;;5156484;27;20050;-65
2023/09/16 06:55:58;;;;;;;10.65;9.38;;;13.30;99.90;;;;;;5155364;27;20043;-65
2023/09/16 06:58:23;;;;;;;10.70;8.55;;;13.50;99.90;;;;;;5156194;27;20062;-65
2023/09/16 07:00:49;;;;;;;11.35;9.48;;;13.60;99.90;;;;;;5156029;27;20130;-65
2023/09/16 07:03:15;;;;;;;10.57;8.93;;;13.80;99.90;;;;;;5137752;27;20046;-66
2023/09/16 07:05:47;;;;;;;12.80;8.88;;;13.90;99.90;;;;;;5156432;27;20090;-65
2023/09/16 07:08:15;;;;;;;11.00;9.13;;;14.00;99.90;;;;;;5156562;27;20053;-65
2023/09/16 07:10:40;;;;;;;9.73;8.68;;;14.10;99.90;;;;;;5155923;27;20407;-66
2023/09/16 07:13:06;;;;;;;9.65;8.52;;;14.20;99.90;;;;;;5155792;27;20051;-65
2023/09/16 07:15:32;;;;;;;9.55;8.38;;;14.30;99.90;;;;;;5156143;27;20038;-65
2023/09/16 07:17:57;;;;;;;9.65;8.02;;;14.30;99.90;;;;;;5155726;27;20042;-65
2023/09/16 07:20:23;;;;;;;9.68;8.60;;;14.30;99.90;;;;;;5155822;27;20054;-66
2023/09/16 07:22:51;;;;;;;10.35;7.90;;;14.40;99.90;;;;;;5155841;27;20094;-66
2023/09/16 07:25:17;;;;;;;9.52;8.52;;;14.40;99.90;;;;;;5136870;27;20059;-66
2023/09/16 07:27:43;;;;;;;10.13;8.35;;;14.50;99.90;;;;;;5155200;27;20129;-66
2023/09/16 07:30:09;;;;;;;10.05;8.55;;;14.50;99.90;;;;;;5148678;27;20051;-66
2023/09/16 07:32:36;;;;;;;10.98;8.55;;;14.60;99.90;;;;;;5134640;27;20039;-66
2023/09/16 07:35:02;;;;;;;12.80;9.25;;;14.70;99.90;;;;;;5139189;27;20047;-66
2023/09/16 07:37:28;;;;;;;10.88;9.73;;;14.70;99.90;;;;;;5155028;27;20045;-66
2023/09/16 07:39:54;;;;;;;10.90;9.75;;;14.80;99.90;;;;;;5155773;27;20051;-66
2023/09/16 07:42:20;;;;;;;12.70;10.07;;;14.90;99.90;;;;;;5155623;27;20072;-65
2023/09/16 07:44:45;;;;;;;11.20;9.48;;;15.00;99.90;;;;;;5155376;27;20042;-65
2023/09/16 07:47:11;;;;;;;12.95;10.60;;;15.10;99.90;;;;;;5137455;27;20425;-65
2023/09/16 07:49:37;;;;;;;12.30;10.93;;;15.20;99.90;;;;;;5155406;27;20039;-66
2023/09/16 07:52:03;;;;;;;11.90;10.00;;;15.30;99.90;;;;;;5149159;27;20122;-66
2023/09/16 07:54:29;;;;;;;13.18;10.35;;;15.40;99.90;;;;;;5154086;27;20043;-65
2023/09/16 07:56:54;;;;;;;13.35;11.15;;;15.50;99.90;;;;;;5131851;27;20581;-66
2023/09/16 07:59:21;;;;;;;13.82;11.38;;;15.60;99.90;;;;;;5145832;27;20070;-65
2023/09/16 08:01:47;;;;;;;13.63;11.15;;;15.70;99.90;;;;;;5141806;27;20053;-65
2023/09/16 08:04:13;;;;;;;13.77;11.45;;;15.70;99.90;;;;;;5145070;27;20034;-65
2023/09/16 08:06:38;;;;;;;13.50;11.00;;;15.80;99.90;;;;;;5142997;27;20042;-64
2023/09/16 08:09:04;;;;;;;15.88;11.20;;;15.90;99.90;;;;;;5146751;27;20043;-65
2023/09/16 08:11:30;;;;;;;13.48;10.98;;;15.90;99.90;;;;;;5152860;27;20046;-65
2023/09/16 08:13:56;;;;;;;14.95;10.77;;;15.90;99.90;;;;;;5152809;27;20046;-65
2023/09/16 08:16:21;;;;;;;14.63;11.35;;;15.90;99.90;;;;;;5144465;27;20038;-65
2023/09/16 08:18:47;;;;;;;15.27;11.60;;;16.00;99.90;;;;;;5152978;27;20506;-64
2023/09/16 08:21:13;;;;;;;14.80;11.57;;;16.00;99.90;;;;;;5153101;27;20105;-65
2023/09/16 08:23:38;;;;;;;14.75;11.50;;;16.20;99.90;;;;;;5153024;27;20071;-65
2023/09/16 08:26:04;;;;;;;13.57;11.57;;;16.30;99.90;;;;;;5152964;27;20084;-65
2023/09/16 08:28:30;;;;;;;14.20;11.63;;;16.40;99.90;;;;;;5151462;27;20372;-65
2023/09/16 08:30:56;;;;;;;15.27;12.20;;;16.60;99.90;;;;;;5139651;27;20131;-65
2023/09/16 08:33:22;;;;;;;12.45;10.63;;;16.80;99.90;;;;;;5131448;27;20114;-65
2023/09/16 08:35:48;;;;;;;15.18;11.55;;;17.00;99.90;;;;;;5153799;27;20038;-65
2023/09/16 08:38:14;;;;;;;13.15;11.07;;;17.20;99.90;;;;;;5148185;27;20047;-66
2023/09/16 08:40:40;;;;;;;13.73;10.30;;;17.30;99.90;;;;;;5136300;27;20043;-66
2023/09/16 08:43:46;;;;;;;12.00;9.82;;;17.30;99.90;;;;;;5118374;27;20043;-66
2023/09/16 08:46:17;;;;;;;11.80;10.57;;;17.40;99.90;;;;;;5052752;28;20124;-65
2023/09/16 08:48:46;;;;;;;12.63;10.02;;;17.50;99.90;;;;;;5071749;28;20045;-65
2023/09/16 08:51:16;;;;;;;11.90;9.95;;;17.60;99.90;;;;;;5117543;27;20188;-66
2023/09/16 08:53:43;;;;;;;12.48;10.13;;;17.70;99.90;;;;;;5139606;27;20526;-66
2023/09/16 08:56:09;;;;;;;13.68;10.02;;;17.90;99.90;;;;;;5135691;27;20035;-67
2023/09/16 08:58:36;;;;;;;12.30;9.48;;;18.00;99.90;;;;;;5118045;27;20050;-66
2023/09/16 09:01:04;;;;;;;11.45;9.70;;;18.20;99.90;;;;;;5135716;27;20065;-65
2023/09/16 09:03:32;;;;;;;11.90;9.98;;;18.40;99.90;;;;;;5154683;27;20390;-65
2023/09/16 09:05:58;;;;;;;11.07;9.80;;;18.50;99.90;;;;;;5156765;27;20035;-66
2023/09/16 09:08:24;;;;;;;13.95;10.20;;;18.70;99.90;;;;;;5156559;27;20045;-65
2023/09/16 09:10:50;;;;;;;11.77;9.50;;;18.80;99.90;;;;;;5156538;27;20390;-66
2023/09/16 09:13:16;;;;;;;10.30;8.63;;;18.90;99.90;;;;;;5138488;27;20049;-65
2023/09/16 09:15:47;;;;;;;10.13;9.00;;;18.90;99.90;;;;;;5138561;27;20050;-65
2023/09/16 09:18:17;;;;;;;11.40;8.70;;;18.80;99.90;;;;;;5157091;27;20049;-65
2023/09/16 09:20:43;;;;;;;10.63;8.57;;;18.80;99.90;;;;;;5152281;27;20133;-65
2023/09/16 09:23:08;;;;;;;11.35;8.80;;;18.70;99.90;;;;;;5144830;27;20122;-64
2023/09/16 09:25:36;;;;;;;12.48;9.27;;;18.70;99.90;;;;;;5135423;27;20074;-65
2023/09/16 09:28:03;;;;;;;11.60;9.23;;;18.70;99.90;;;;;;5135350;27;20058;-65
2023/09/16 09:30:31;;;;;;;13.00;9.30;;;18.80;99.90;;;;;;5135666;27;20051;-65
2023/09/16 09:32:57;;;;;;;11.00;8.73;;;18.90;99.90;;;;;;5134609;27;20043;-65
2023/09/16 09:35:28;;;;;;;9.85;8.70;;;19.10;99.90;;;;;;5134536;27;20047;-65
2023/09/16 09:37:54;;;;;;;11.15;9.18;;;19.30;99.90;;;;;;5132218;27;20080;-66
2023/09/16 09:40:21;;;;;;;11.10;9.57;;;19.50;99.90;;;;;;5135744;27;20039;-65
2023/09/16 09:42:48;;;;;;;10.30;8.60;;;19.80;99.90;;;;;;5135599;27;20050;-67
2023/09/16 09:45:15;;;;;;;10.23;8.25;;;19.90;99.90;;;;;;5138148;27;20119;-66
2023/09/16 09:47:42;;;;;;;9.63;8.50;;;20.00;99.90;;;;;;5155435;27;20043;-66
2023/09/16 09:50:13;;;;;;;10.20;8.23;;;20.20;99.90;;;;;;5156037;27;20095;-66
2023/09/16 09:52:44;;;;;;;10.68;8.40;;;20.40;99.90;;;;;;5156520;27;20035;-67
2023/09/16 09:55:10;;;;;;;9.85;8.52;;;20.50;99.90;;;;;;5139721;27;20125;-66
2023/09/16 09:57:36;;;;;;;11.02;9.15;;;20.60;99.90;;;;;;5134629;27;20188;-66
2023/09/16 10:00:02;;;;;;;10.07;8.35;;;20.70;99.90;;;;;;5135173;27;20202;-66
2023/09/16 10:02:29;;;;;;;9.93;8.50;;;20.80;99.90;;;;;;5134961;27;20051;-66
2023/09/16 10:04:58;;;;;;;9.98;8.23;;;20.80;99.90;;;;;;5135283;27;20054;-66
2023/09/16 10:07:26;;;;;;;10.75;8.82;;;20.70;99.90;;;;;;5132603;27;20475;-66
2023/09/16 10:09:52;;;;;;;10.60;8.55;;;20.70;99.90;;;;;;5155290;27;20130;-66
2023/09/16 10:12:19;;;;;;;9.57;8.50;;;20.90;99.90;;;;;;5155491;27;20045;-66
2023/09/16 10:14:45;;;;;;;12.57;8.80;;;21.20;99.90;;;;;;5155778;27;20129;-66
2023/09/16 10:17:12;;;;;;;9.68;8.30;;;21.50;99.90;;;;;;5155503;27;20138;-66
2023/09/16 10:19:38;;;;;;;8.95;7.28;;;21.70;99.90;;;;;;5155214;27;20055;-66
2023/09/16 10:22:04;;;;;;;9.00;7.57;;;22.00;99.90;;;;;;5137158;27;20073;-66
2023/09/16 10:24:30;;;;;;;8.68;7.18;;;22.20;99.90;;;;;;5155867;27;20512;-67
2023/09/16 10:27:00;;;;;;;8.30;7.40;;;22.40;99.90;;;;;;5136678;27;20030;-66
2023/09/16 10:29:29;;;;;;;8.68;7.07;;;22.60;99.90;;;;;;5154771;27;20432;-66
2023/09/16 10:31:55;;;;;;;8.38;6.68;;;22.80;99.90;;;;;;5134383;27;20050;-66
2023/09/16 10:34:21;;;;;;;8.20;6.95;;;22.90;99.90;;;;;;5099522;27;20051;-67
2023/09/16 10:36:48;;;;;;;7.88;6.40;;;23.10;99.90;;;;;;5116341;27;20100;-67
2023/09/16 10:39:15;;;;;;;7.63;6.28;;;23.20;99.90;;;;;;5151956;27;20475;-67
2023/09/16 10:41:43;;;;;;;7.07;6.20;;;23.40;99.90;;;;;;5136791;27;20403;-64
2023/09/16 10:44:12;;;;;;;7.45;5.63;;;23.50;99.90;;;;;;5154729;27;20053;-65
2023/09/16 10:46:38;;;;;;;6.88;5.80;;;23.70;99.90;;;;;;5154302;27;20042;-65
2023/09/16 10:49:04;;;;;;;7.18;5.35;;;23.80;99.90;;;;;;5154467;27;20078;-66
2023/09/16 10:51:36;;;;;;;6.55;5.57;;;23.90;99.90;;;;;;5155019;27;20122;-66
2023/09/16 10:54:09;;;;;;;6.88;5.28;;;24.00;99.90;;;;;;5136691;27;20043;-65
2023/09/16 10:56:42;;;;;;;7.18;5.40;;;24.10;99.90;;;;;;5154196;27;20119;-66
2023/09/16 10:59:13;;;;;;;6.35;5.18;;;24.10;99.90;;;;;;5153862;27;20489;-66
2023/09/16 11:01:55;;;;;;;6.60;5.75;;;24.10;99.90;;;;;;5154527;27;20043;-65
2023/09/16 11:04:21;;;;;;;6.25;5.65;;;24.00;99.90;;;;;;5154617;27;20069;-65
2023/09/16 11:06:50;;;;;;;7.45;6.07;;;23.90;99.90;;;;;;5143204;27;20382;-65
2023/09/16 11:09:21;;;;;;;6.50;5.80;;;23.70;99.90;;;;;;5134104;27;20050;-66
2023/09/16 11:11:48;;;;;;;6.53;5.57;;;23.70;99.90;;;;;;5133556;27;20066;-65
2023/09/16 11:14:15;;;;;;;8.00;5.90;;;23.60;99.90;;;;;;5114992;27;20053;-66
2023/09/16 11:16:45;;;;;;;7.35;5.90;;;23.60;99.90;;;;;;5133754;27;20043;-66
2023/09/16 11:19:14;;;;;;;7.38;5.50;;;23.60;99.90;;;;;;5132718;27;20058;-66
2023/09/16 11:21:41;;;;;;;5.90;5.03;;;23.50;99.90;;;;;;5138146;27;20093;-66
2023/09/16 11:24:07;;;;;;;9.27;6.00;;;23.40;99.90;;;;;;5140979;27;20436;-66
2023/09/16 11:26:37;;;;;;;7.55;6.00;;;23.20;99.90;;;;;;5126756;27;20082;-66
2023/09/16 11:29:18;;;;;;;7.68;5.18;;;23.20;99.90;;;;;;5152018;27;20051;-65
2023/09/16 11:31:44;;;;;;;8.25;6.18;;;23.30;99.90;;;;;;5146073;27;20385;-65
2023/09/16 11:34:17;;;;;;;7.53;5.70;;;23.30;99.90;;;;;;5153390;27;20087;-65
2023/09/16 11:36:47;;;;;;;7.68;5.65;;;23.40;99.90;;;;;;5135570;27;20436;-64
2023/09/16 11:39:18;;;;;;;7.00;5.32;;;23.50;99.90;;;;;;5139747;27;20131;-64
2023/09/16 11:41:49;;;;;;;9.02;6.25;;;23.50;99.90;;;;;;5132004;27;20078;-64
2023/09/16 11:44:15;;;;;;;7.38;6.35;;;23.40;99.90;;;;;;5133172;27;20418;-64
2023/09/16 11:46:43;;;;;;;6.40;5.18;;;23.30;99.90;;;;;;5145404;27;20049;-65
2023/09/16 11:49:09;;;;;;;6.93;5.82;;;23.30;99.90;;;;;;5153607;27;20042;-65
2023/09/16 11:51:36;;;;;;;6.85;5.78;;;23.30;99.90;;;;;;5153456;27;20379;-65
2023/09/16 11:54:02;;;;;;;7.00;5.65;;;23.30;99.90;;;;;;5153321;27;20129;-65
2023/09/16 11:56:30;;;;;;;6.85;5.07;;;23.20;99.90;;;;;;5153770;27;20082;-65
2023/09/16 11:59:02;;;;;;;7.60;4.63;;;23.30;99.90;;;;;;5153308;27;20046;-64
2023/09/16 12:01:36;;;;;;;6.07;5.03;;;23.40;99.90;;;;;;5151974;27;20503;-64
2023/09/16 12:04:04;;;;;;;5.80;4.70;;;23.40;99.90;;;;;;5152932;27;20432;-65
2023/09/16 12:06:35;;;;;;;6.20;4.60;;;23.40;99.90;;;;;;5153651;27;20406;-65
2023/09/16 12:09:06;;;;;;;6.47;5.53;;;23.50;99.90;;;;;;5134799;27;20075;-65
2023/09/16 12:11:32;;;;;;;5.68;4.90;;;23.50;99.90;;;;;;5153455;27;20042;-65
2023/09/16 12:14:00;;;;;;;7.47;4.32;;;23.60;99.90;;;;;;5153812;27;20471;-65
2023/09/16 12:16:27;;;;;;;5.47;4.50;;;23.60;99.90;;;;;;5134937;27;20046;-65
2023/09/16 12:18:53;;;;;;;5.03;3.95;;;23.60;99.90;;;;;;5153351;27;20046;-64
2023/09/16 12:21:19;;;;;;;8.02;4.10;;;23.70;99.90;;;;;;5153536;27;20106;-65
2023/09/16 12:23:45;;;;;;;5.05;3.60;;;23.80;99.90;;;;;;5153342;27;20125;-64
2023/09/16 12:26:12;;;;;;;5.00;4.03;;;23.80;99.90;;;;;;5153079;27;20105;-64
2023/09/16 12:28:39;;;;;;;5.72;4.10;;;23.90;99.90;;;;;;5153037;27;20095;-64
2023/09/16 12:31:11;;;;;;;6.53;3.95;;;23.90;99.90;;;;;;5138469;27;20055;-65
2023/09/16 12:33:53;;;;;;;4.95;3.88;;;24.00;99.90;;;;;;5132611;28;20051;-64
2023/09/16 12:36:26;;;;;;;4.22;3.28;;;24.00;99.90;;;;;;5132417;28;20039;-65
2023/09/16 12:38:53;;;;;;;4.28;3.33;;;24.00;99.90;;;;;;5146010;27;20046;-65
2023/09/16 12:41:20;;;;;;;4.97;3.25;;;24.00;99.90;;;;;;5144948;27;20371;-65